Time;durP1;ratioP1;P1;durP2;ratioP2;P2;SDS_P1;SDS_P2;PMS_P1;PMS_P2;Temp;Humidity;BMP_temperature;BMP_pressure;BME280_temperature;BME280_humidity;BME280_pressure;Samples;Min_cycle;Max_cycle;Signal;HPM_P1;HPM_P2
2022/11/28 00:01:43;;;;;;;;;13.00;13.00;;;;;;;;4990922;28;8817;-73
2022/11/28 00:04:09;;;;;;;;;17.25;17.25;;;;;;;;4988921;28;14324;-73
2022/11/28 00:06:39;;;;;;;;;22.67;19.00;;;;;;;;4988492;28;14481;-73
2022/11/28 00:09:04;;;;;;;;;22.20;18.40;;;;;;;;4988572;28;13628;-73
2022/11/28 00:11:29;;;;;;;;;13.67;13.00;;;;;;;;4992096;28;8919;-73
2022/11/28 00:13:54;;;;;;;;;16.33;12.33;;;;;;;;4991695;28;8932;-73
2022/11/28 00:16:21;;;;;;;;;15.33;13.33;;;;;;;;5018405;23;9028;-71
2022/11/28 00:18:47;;;;;;;;;10.00;8.00;;;;;;;;5012432;28;8802;-70
2022/11/28 00:21:13;;;;;;;;;15.00;15.00;;;;;;;;5012056;28;11606;-70
2022/11/28 00:23:38;;;;;;;;;13.00;13.00;;;;;;;;5008768;28;13604;-71
2022/11/28 00:26:05;;;;;;;;;19.00;10.00;;;;;;;;5010974;28;12290;-71
2022/11/28 00:28:31;;;;;;;;;22.25;21.25;;;;;;;;5008811;28;14421;-70
2022/11/28 00:30:56;;;;;;;;;13.67;11.00;;;;;;;;5012221;28;9738;-70
2022/11/28 00:33:22;;;;;;;;;20.00;18.00;;;;;;;;5007610;28;13651;-70
2022/11/28 00:35:47;;;;;;;;;14.67;11.00;;;;;;;;5011545;28;9502;-70
2022/11/28 00:38:12;;;;;;;;;19.50;19.50;;;;;;;;5008370;28;13592;-70
2022/11/28 00:40:38;;;;;;;;;14.67;10.00;;;;;;;;5011763;28;8834;-70
2022/11/28 00:43:03;;;;;;;;;19.50;18.00;;;;;;;;5008585;28;13567;-70
2022/11/28 00:45:28;;;;;;;;;15.33;11.67;;;;;;;;5011768;28;8833;-70
2022/11/28 00:47:54;;;;;;;;;14.00;10.33;;;;;;;;5011910;28;8779;-69
2022/11/28 00:50:19;;;;;;;;;13.33;13.00;;;;;;;;5011890;28;8811;-70
2022/11/28 00:52:44;;;;;;;;;16.67;15.33;;;;;;;;5011360;28;8818;-70
2022/11/28 00:55:10;;;;;;;;;12.00;9.67;;;;;;;;5011624;28;8810;-70
2022/11/28 00:57:35;;;;;;;;;13.67;13.00;;;;;;;;5011831;28;8899;-70
2022/11/28 01:00:01;;;;;;;;;22.25;18.00;;;;;;;;5007740;28;13580;-69
2022/11/28 01:02:26;;;;;;;;;10.00;10.00;;;;;;;;5011512;28;8840;-69
2022/11/28 01:04:52;;;;;;;;;16.00;13.00;;;;;;;;5008184;28;13615;-70
2022/11/28 01:07:17;;;;;;;;;26.00;21.00;;;;;;;;5007983;28;13593;-70
2022/11/28 01:09:42;;;;;;;;;14.00;13.00;;;;;;;;5011175;28;8795;-70
2022/11/28 01:12:07;;;;;;;;;13.00;11.00;;;;;;;;5011121;28;8830;-70
2022/11/28 01:14:33;;;;;;;;;13.33;12.67;;;;;;;;5011385;28;8802;-69
2022/11/28 01:16:58;;;;;;;;;17.00;17.00;;;;;;;;5007897;28;13645;-70
2022/11/28 01:19:23;;;;;;;;;10.67;10.67;;;;;;;;5011588;28;8814;-69
2022/11/28 01:21:49;;;;;;;;;17.33;13.00;;;;;;;;5011318;28;8920;-69
2022/11/28 01:24:14;;;;;;;;;18.25;17.25;;;;;;;;5007374;28;13586;-70
2022/11/28 01:26:40;;;;;;;;;19.00;16.75;;;;;;;;5007627;28;13783;-70
2022/11/28 01:29:06;;;;;;;;;11.00;10.67;;;;;;;;5011296;28;9532;-70
2022/11/28 01:31:31;;;;;;;;;21.00;17.25;;;;;;;;5005745;28;14394;-69
2022/11/28 01:33:57;;;;;;;;;13.00;12.33;;;;;;;;5011116;28;11507;-70
2022/11/28 01:36:23;;;;;;;;;17.00;16.00;;;;;;;;5006199;28;13702;-71
2022/11/28 01:38:48;;;;;;;;;16.00;13.00;;;;;;;;5010942;28;9529;-70
2022/11/28 01:41:15;;;;;;;;;17.25;17.25;;;;;;;;5007198;28;13715;-70
2022/11/28 01:43:59;;;;;;;;;17.00;17.00;;;;;;;;5007157;28;13687;-70
2022/11/28 01:46:24;;;;;;;;;18.33;17.33;;;;;;;;5007081;28;13557;-70
2022/11/28 01:48:50;;;;;;;;;18.00;17.00;;;;;;;;5006907;28;13616;-70
2022/11/28 01:51:16;;;;;;;;;11.00;11.00;;;;;;;;5011003;28;8844;-69
2022/11/28 01:53:43;;;;;;;;;19.00;15.50;;;;;;;;5006917;28;14339;-70
2022/11/28 01:56:12;;;;;;;;;12.67;9.67;;;;;;;;5010901;28;8783;-70
2022/11/28 01:58:40;;;;;;;;;9.67;9.00;;;;;;;;5009422;28;8814;-70
2022/11/28 02:01:05;;;;;;;;;11.33;10.00;;;;;;;;5010943;28;8819;-70
2022/11/28 02:03:40;;;;;;;;;14.33;13.00;;;;;;;;5007116;28;13573;-70
2022/11/28 02:06:06;;;;;;;;;16.00;16.00;;;;;;;;5007125;28;14409;-70
2022/11/28 02:08:32;;;;;;;;;16.25;14.50;;;;;;;;5006910;28;14331;-70
2022/11/28 02:10:59;;;;;;;;;9.00;8.67;;;;;;;;5010671;28;11537;-71
2022/11/28 02:13:30;;;;;;;;;11.00;8.33;;;;;;;;5010677;28;8791;-70
2022/11/28 02:16:04;;;;;;;;;10.00;9.00;;;;;;;;5011089;28;8924;-70
2022/11/28 02:18:29;;;;;;;;;9.33;9.33;;;;;;;;5007381;28;13483;-71
2022/11/28 02:21:01;;;;;;;;;13.00;10.00;;;;;;;;5010046;28;8830;-70
2022/11/28 02:23:27;;;;;;;;;12.00;9.00;;;;;;;;5010423;28;8782;-71
2022/11/28 02:26:08;;;;;;;;;12.67;9.00;;;;;;;;5010538;28;8833;-70
2022/11/28 02:28:52;;;;;;;;;12.00;9.00;;;;;;;;5010620;28;8795;-70
2022/11/28 02:31:36;;;;;;;;;11.33;9.00;;;;;;;;5009406;28;8806;-70
2022/11/28 02:34:08;;;;;;;;;10.00;9.00;;;;;;;;5010348;28;8821;-70
2022/11/28 02:36:39;;;;;;;;;9.00;9.00;;;;;;;;5010620;28;8795;-73
2022/11/28 02:39:07;;;;;;;;;10.33;9.00;;;;;;;;5009924;28;8802;-68
2022/11/28 02:41:44;;;;;;;;;7.67;7.67;;;;;;;;5009465;28;8939;-69
2022/11/28 02:44:12;;;;;;;;;15.00;10.00;;;;;;;;5009594;28;8945;-70
2022/11/28 02:46:47;;;;;;;;;12.00;9.00;;;;;;;;5008610;28;9576;-69
2022/11/28 02:49:18;;;;;;;;;10.67;8.33;;;;;;;;5008235;28;8838;-69
2022/11/28 02:52:04;;;;;;;;;7.00;7.00;;;;;;;;5007138;28;8817;-69
2022/11/28 02:54:30;;;;;;;;;9.00;7.00;;;;;;;;5007401;28;8810;-69
2022/11/28 02:56:56;;;;;;;;;15.33;13.67;;;;;;;;5004704;28;13620;-69
2022/11/28 02:59:31;;;;;;;;;10.67;10.67;;;;;;;;5011895;28;8913;-70
2022/11/28 03:01:57;;;;;;;;;12.00;12.00;;;;;;;;5010544;28;13597;-69
2022/11/28 03:04:45;;;;;;;;;17.00;16.25;;;;;;;;5010243;28;15185;-69
2022/11/28 03:07:20;;;;;;;;;9.00;7.00;;;;;;;;5005516;28;8810;-70
2022/11/28 03:10:03;;;;;;;;;10.00;9.00;;;;;;;;5013608;28;8860;-70
2022/11/28 03:12:29;;;;;;;;;10.00;9.33;;;;;;;;5013202;28;8798;-70
2022/11/28 03:14:55;;;;;;;;;9.00;7.00;;;;;;;;5014044;28;8802;-70
2022/11/28 03:17:25;;;;;;;;;14.00;11.33;;;;;;;;5009150;28;13602;-70
2022/11/28 03:20:00;;;;;;;;;9.67;7.00;;;;;;;;5013505;28;8826;-70
2022/11/28 03:22:33;;;;;;;;;11.33;7.00;;;;;;;;5013855;28;8818;-69
2022/11/28 03:25:15;;;;;;;;;15.80;14.60;;;;;;;;5008238;28;14199;-69
2022/11/28 03:27:48;;;;;;;;;12.00;9.00;;;;;;;;5013644;28;8921;-70
2022/11/28 03:30:20;;;;;;;;;14.00;11.50;;;;;;;;5009007;28;13514;-70
2022/11/28 03:32:47;;;;;;;;;9.00;7.67;;;;;;;;5013589;28;8901;-70
2022/11/28 03:35:15;;;;;;;;;12.25;11.75;;;;;;;;5009459;28;14172;-69
2022/11/28 03:37:44;;;;;;;;;12.40;12.40;;;;;;;;5009689;28;15135;-70
2022/11/28 03:40:11;;;;;;;;;9.33;9.33;;;;;;;;5013126;28;8891;-69
2022/11/28 03:42:40;;;;;;;;;18.50;15.00;;;;;;;;5009283;28;14237;-70
2022/11/28 03:45:12;;;;;;;;;7.67;7.67;;;;;;;;5013523;28;8790;-70
2022/11/28 03:47:42;;;;;;;;;19.75;15.75;;;;;;;;5009614;28;13514;-70
2022/11/28 03:50:12;;;;;;;;;16.25;16.25;;;;;;;;5008984;28;14245;-69
2022/11/28 03:52:44;;;;;;;;;12.75;12.75;;;;;;;;5009185;28;14288;-69
2022/11/28 03:55:12;;;;;;;;;16.00;12.80;;;;;;;;5007633;28;13746;-70
2022/11/28 03:57:47;;;;;;;;;12.80;10.40;;;;;;;;5009492;28;13573;-70
2022/11/28 04:00:13;;;;;;;;;14.60;12.00;;;;;;;;5009280;28;14303;-70
2022/11/28 04:02:48;;;;;;;;;19.00;15.80;;;;;;;;5009255;28;14258;-70
2022/11/28 04:05:31;;;;;;;;;12.75;12.75;;;;;;;;5009231;28;13574;-70
2022/11/28 04:08:06;;;;;;;;;13.50;12.75;;;;;;;;5008649;28;13536;-70
2022/11/28 04:10:40;;;;;;;;;17.00;13.00;;;;;;;;5007718;28;14353;-69
2022/11/28 04:13:05;;;;;;;;;19.00;14.60;;;;;;;;5008845;28;14338;-69
2022/11/28 04:15:33;;;;;;;;;13.00;13.00;;;;;;;;5009077;28;14240;-69
2022/11/28 04:18:17;;;;;;;;;15.00;15.00;;;;;;;;5008666;28;13700;-69
2022/11/28 04:21:05;;;;;;;;;13.00;13.00;;;;;;;;5008877;28;14320;-69
2022/11/28 04:23:31;;;;;;;;;11.00;11.00;;;;;;;;5007454;28;13579;-70
2022/11/28 04:26:00;;;;;;;;;16.00;13.40;;;;;;;;5008365;28;13472;-69
2022/11/28 04:28:28;;;;;;;;;16.00;15.20;;;;;;;;5008669;28;13587;-69
2022/11/28 04:30:56;;;;;;;;;17.80;16.40;;;;;;;;5007381;28;13599;-70
2022/11/28 04:33:22;;;;;;;;;12.00;10.00;;;;;;;;5012426;28;8806;-70
2022/11/28 04:35:50;;;;;;;;;16.40;15.00;;;;;;;;5008493;28;14354;-68
2022/11/28 04:38:16;;;;;;;;;16.75;16.00;;;;;;;;5007141;28;13616;-68
2022/11/28 04:40:50;;;;;;;;;16.00;16.00;;;;;;;;5008228;28;13690;-68
2022/11/28 04:43:20;;;;;;;;;9.33;8.33;;;;;;;;5011621;28;8895;-68
2022/11/28 04:45:49;;;;;;;;;19.25;16.50;;;;;;;;5008351;28;13532;-68
2022/11/28 04:48:15;;;;;;;;;16.00;16.00;;;;;;;;5008495;28;13543;-69
2022/11/28 04:50:48;;;;;;;;;12.33;11.33;;;;;;;;5008283;28;15310;-69
2022/11/28 04:53:25;;;;;;;;;12.80;12.80;;;;;;;;5008302;28;13619;-68
2022/11/28 04:55:54;;;;;;;;;19.80;18.60;;;;;;;;5007989;28;13560;-69
2022/11/28 04:58:40;;;;;;;;;16.50;16.50;;;;;;;;5007963;28;13622;-70
2022/11/28 05:01:08;;;;;;;;;13.00;11.75;;;;;;;;5007601;28;13643;-70
2022/11/28 05:03:34;;;;;;;;;9.00;8.00;;;;;;;;5008384;28;13594;-70
2022/11/28 05:06:00;;;;;;;;;9.00;9.00;;;;;;;;5011663;28;8822;-70
2022/11/28 05:08:25;;;;;;;;;12.80;12.00;;;;;;;;5008170;28;13477;-70
2022/11/28 05:10:50;;;;;;;;;3.00;3.00;;;;;;;;5011641;28;8818;-70
2022/11/28 05:13:16;;;;;;;;;7.67;4.00;;;;;;;;5011482;28;8817;-70
2022/11/28 05:15:42;;;;;;;;;12.75;12.75;;;;;;;;5007980;28;13598;-70
2022/11/28 05:18:07;;;;;;;;;17.00;12.00;;;;;;;;5007334;28;13563;-70
2022/11/28 05:20:32;;;;;;;;;12.00;12.00;;;;;;;;5006930;28;13730;-69
2022/11/28 05:22:58;;;;;;;;;17.00;16.25;;;;;;;;5007776;28;13552;-69
2022/11/28 05:25:23;;;;;;;;;16.33;14.67;;;;;;;;5007753;28;13565;-69
2022/11/28 05:27:48;;;;;;;;;19.33;12.67;;;;;;;;5010630;28;8930;-69
2022/11/28 05:30:14;;;;;;;;;12.67;9.33;;;;;;;;5011061;28;8869;-70
2022/11/28 05:32:39;;;;;;;;;17.50;15.75;;;;;;;;5007381;28;13517;-70
2022/11/28 05:35:04;;;;;;;;;24.75;17.50;;;;;;;;5007048;28;13696;-69
2022/11/28 05:37:31;;;;;;;;;9.00;9.00;;;;;;;;5005465;28;13621;-69
2022/11/28 05:39:56;;;;;;;;;16.00;16.00;;;;;;;;5007213;28;13557;-69
2022/11/28 05:42:22;;;;;;;;;16.50;12.50;;;;;;;;5006873;28;14329;-72
2022/11/28 05:44:47;;;;;;;;;9.67;7.67;;;;;;;;5025885;28;8815;-72
2022/11/28 05:47:14;;;;;;;;;15.75;13.00;;;;;;;;5006737;28;14388;-71
2022/11/28 05:49:39;;;;;;;;;10.00;8.33;;;;;;;;5010268;28;8822;-70
2022/11/28 05:52:05;;;;;;;;;22.33;16.67;;;;;;;;5006486;28;15160;-70
2022/11/28 05:54:30;;;;;;;;;16.00;9.33;;;;;;;;5008532;28;8932;-71
2022/11/28 05:56:56;;;;;;;;;15.50;13.25;;;;;;;;5002080;28;13555;-70
2022/11/28 05:59:21;;;;;;;;;13.00;10.67;;;;;;;;4991165;28;8805;-72
2022/11/28 06:01:46;;;;;;;;;16.00;14.33;;;;;;;;4987460;28;13712;-70
2022/11/28 06:04:12;;;;;;;;;15.00;15.00;;;;;;;;4987741;28;14486;-72
2022/11/28 06:06:37;;;;;;;;;7.33;4.00;;;;;;;;5010901;28;8825;-70
2022/11/28 06:09:03;;;;;;;;;12.67;12.67;;;;;;;;5006792;28;13621;-69
2022/11/28 06:11:30;;;;;;;;;14.75;14.75;;;;;;;;5007078;28;13630;-68
2022/11/28 06:13:55;;;;;;;;;13.00;13.00;;;;;;;;5006817;28;13714;-69
2022/11/28 06:16:22;;;;;;;;;13.00;10.00;;;;;;;;5051429;23;9565;-74
2022/11/28 06:18:47;;;;;;;;;13.00;13.00;;;;;;;;5005688;28;13549;-71
2022/11/28 06:21:13;;;;;;;;;12.33;9.00;;;;;;;;5007889;28;9605;-74
2022/11/28 06:23:42;;;;;;;;;14.50;13.50;;;;;;;;5005408;28;13513;-71
2022/11/28 06:26:11;;;;;;;;;16.50;15.75;;;;;;;;5004540;28;13669;-72
2022/11/28 06:28:37;;;;;;;;;12.00;12.00;;;;;;;;5005386;28;14237;-71
2022/11/28 06:31:02;;;;;;;;;12.33;12.00;;;;;;;;5003250;28;14570;-71
2022/11/28 06:33:27;;;;;;;;;13.00;12.25;;;;;;;;5007663;28;13588;-72
2022/11/28 06:36:00;;;;;;;;;16.00;13.00;;;;;;;;5009357;28;14230;-69
2022/11/28 06:38:25;;;;;;;;;14.00;12.50;;;;;;;;5005365;28;13782;-72
2022/11/28 06:40:50;;;;;;;;;10.00;10.00;;;;;;;;5010678;28;8842;-71
2022/11/28 06:43:15;;;;;;;;;10.67;10.33;;;;;;;;5012174;28;8802;-69
2022/11/28 06:45:41;;;;;;;;;11.00;10.00;;;;;;;;5013154;28;8813;-70
2022/11/28 06:48:06;;;;;;;;;15.33;12.33;;;;;;;;5012835;28;8805;-69
2022/11/28 06:50:31;;;;;;;;;18.33;11.00;;;;;;;;5013012;28;8893;-76
2022/11/28 06:52:57;;;;;;;;;11.00;10.33;;;;;;;;5012927;28;8806;-69
2022/11/28 06:55:22;;;;;;;;;13.00;10.00;;;;;;;;5013063;28;8871;-70
2022/11/28 06:57:47;;;;;;;;;10.67;8.00;;;;;;;;5019367;28;8794;-71
2022/11/28 07:00:13;;;;;;;;;16.00;10.00;;;;;;;;5013311;28;8973;-72
2022/11/28 07:02:38;;;;;;;;;11.00;10.33;;;;;;;;5012830;28;9828;-73
2022/11/28 07:05:03;;;;;;;;;11.00;10.67;;;;;;;;5012783;28;8910;-71
2022/11/28 07:07:28;;;;;;;;;8.00;8.00;;;;;;;;5012676;28;8795;-77
2022/11/28 07:09:54;;;;;;;;;8.33;7.00;;;;;;;;5012133;28;8815;-71
2022/11/28 07:12:19;;;;;;;;;14.00;10.00;;;;;;;;5011090;28;8811;-69
2022/11/28 07:14:44;;;;;;;;;10.33;10.00;;;;;;;;5011818;28;8807;-69
2022/11/28 07:17:10;;;;;;;;;10.33;10.00;;;;;;;;5012262;28;8814;-70
2022/11/28 07:19:35;;;;;;;;;11.67;10.00;;;;;;;;5012350;28;8919;-69
2022/11/28 07:22:00;;;;;;;;;10.67;7.67;;;;;;;;5010307;28;8862;-70
2022/11/28 07:24:26;;;;;;;;;13.00;11.00;;;;;;;;5012312;28;8850;-69
2022/11/28 07:26:51;;;;;;;;;10.00;10.00;;;;;;;;5012585;28;8810;-68
2022/11/28 07:29:17;;;;;;;;;11.00;10.00;;;;;;;;5012408;28;8882;-69
2022/11/28 07:31:43;;;;;;;;;14.33;12.33;;;;;;;;5009051;28;13590;-69
2022/11/28 07:34:09;;;;;;;;;13.33;11.00;;;;;;;;5011592;28;8795;-69
2022/11/28 07:36:34;;;;;;;;;9.33;8.00;;;;;;;;5010713;28;8845;-69
2022/11/28 07:39:01;;;;;;;;;10.00;10.00;;;;;;;;5012081;28;8845;-69
2022/11/28 07:41:27;;;;;;;;;8.00;8.00;;;;;;;;5012274;28;9537;-69
2022/11/28 07:43:56;;;;;;;;;13.67;11.67;;;;;;;;5010394;28;8825;-72
2022/11/28 07:46:22;;;;;;;;;14.33;10.00;;;;;;;;5011896;28;8860;-71
2022/11/28 07:48:48;;;;;;;;;10.00;8.00;;;;;;;;5012157;28;8790;-71
2022/11/28 07:51:18;;;;;;;;;8.33;7.67;;;;;;;;5043860;28;8786;-69
2022/11/28 07:53:43;;;;;;;;;8.00;8.00;;;;;;;;5012415;28;8787;-70
2022/11/28 07:56:12;;;;;;;;;9.33;9.33;;;;;;;;5011430;28;8833;-70
2022/11/28 07:58:38;;;;;;;;;10.33;8.67;;;;;;;;5012164;28;8819;-69
2022/11/28 08:01:10;;;;;;;;;8.67;8.67;;;;;;;;5012132;28;8831;-70
2022/11/28 08:03:35;;;;;;;;;12.33;12.33;;;;;;;;5012007;28;8810;-70
2022/11/28 08:06:01;;;;;;;;;19.67;11.67;;;;;;;;5010320;28;8868;-70
2022/11/28 08:08:26;;;;;;;;;10.00;10.00;;;;;;;;5011932;28;8811;-70
2022/11/28 08:10:56;;;;;;;;;11.00;8.00;;;;;;;;5009961;28;8815;-70
2022/11/28 08:13:21;;;;;;;;;15.33;11.67;;;;;;;;5011277;28;8787;-70
2022/11/28 08:15:46;;;;;;;;;10.67;10.00;;;;;;;;5011733;28;8794;-70
2022/11/28 08:18:11;;;;;;;;;14.00;11.67;;;;;;;;5011596;28;8817;-70
2022/11/28 08:20:37;;;;;;;;;10.67;10.67;;;;;;;;5011542;28;8830;-69
2022/11/28 08:23:02;;;;;;;;;13.33;11.00;;;;;;;;5011422;28;8806;-70
2022/11/28 08:25:28;;;;;;;;;16.33;11.67;;;;;;;;5042706;28;8957;-69
2022/11/28 08:27:53;;;;;;;;;16.00;10.00;;;;;;;;5011390;28;8925;-70
2022/11/28 08:30:18;;;;;;;;;14.67;9.33;;;;;;;;5010945;28;8807;-70
2022/11/28 08:32:44;;;;;;;;;14.67;13.00;;;;;;;;5011377;28;9200;-70
2022/11/28 08:35:09;;;;;;;;;10.67;10.00;;;;;;;;5011500;28;8815;-70
2022/11/28 08:37:34;;;;;;;;;10.00;10.00;;;;;;;;5011479;28;9043;-70
2022/11/28 08:40:00;;;;;;;;;11.00;10.00;;;;;;;;5042871;28;8810;-71
2022/11/28 08:42:26;;;;;;;;;10.67;8.00;;;;;;;;5011223;28;8844;-70
2022/11/28 08:44:52;;;;;;;;;12.67;10.67;;;;;;;;5011329;28;9540;-70
2022/11/28 08:47:17;;;;;;;;;12.00;11.00;;;;;;;;5011195;28;8787;-70
2022/11/28 08:49:43;;;;;;;;;11.00;8.67;;;;;;;;5011345;28;8782;-70
2022/11/28 08:52:08;;;;;;;;;14.00;11.33;;;;;;;;5010843;28;8825;-72
2022/11/28 08:54:34;;;;;;;;;11.00;9.67;;;;;;;;5010446;28;8806;-70
2022/11/28 08:57:00;;;;;;;;;14.00;14.00;;;;;;;;5007437;28;13594;-70
2022/11/28 08:59:25;;;;;;;;;12.33;12.33;;;;;;;;5010731;28;8819;-69
2022/11/28 09:01:51;;;;;;;;;12.33;9.67;;;;;;;;5010628;28;9623;-70
2022/11/28 09:04:17;;;;;;;;;19.00;12.00;;;;;;;;5010450;28;8822;-70
2022/11/28 09:06:42;;;;;;;;;13.33;12.00;;;;;;;;5010754;28;8918;-71
2022/11/28 09:09:08;;;;;;;;;17.00;12.67;;;;;;;;5025031;28;8826;-70
2022/11/28 09:11:34;;;;;;;;;15.33;11.33;;;;;;;;5014346;28;8810;-71
2022/11/28 09:13:59;;;;;;;;;12.67;11.00;;;;;;;;5010814;28;8965;-70
2022/11/28 09:16:24;;;;;;;;;15.67;13.33;;;;;;;;5011215;28;8857;-70
2022/11/28 09:18:50;;;;;;;;;14.00;12.00;;;;;;;;5010361;28;8845;-71
2022/11/28 09:21:15;;;;;;;;;19.00;16.00;;;;;;;;5009076;28;8943;-71
2022/11/28 09:23:42;;;;;;;;;16.67;13.00;;;;;;;;5010356;28;8795;-70
2022/11/28 09:26:13;;;;;;;;;18.33;13.67;;;;;;;;5009774;28;8816;-71
2022/11/28 09:28:38;;;;;;;;;15.00;13.67;;;;;;;;5010124;28;8807;-71
2022/11/28 09:31:05;;;;;;;;;27.67;24.33;;;;;;;;5010132;28;8902;-70
2022/11/28 09:33:30;;;;;;;;;22.00;21.33;;;;;;;;5009077;28;8814;-71
2022/11/28 09:35:57;;;;;;;;;22.00;19.33;;;;;;;;5010343;28;8920;-70
2022/11/28 09:38:22;;;;;;;;;11.67;9.67;;;;;;;;5010352;28;8903;-71
2022/11/28 09:40:48;;;;;;;;;21.33;19.67;;;;;;;;5009904;28;8843;-71
2022/11/28 09:43:35;;;;;;;;;32.33;31.67;;;;;;;;5009947;28;8802;-71
2022/11/28 09:46:03;;;;;;;;;33.00;29.33;;;;;;;;5009641;28;8885;-70
2022/11/28 09:48:40;;;;;;;;;29.00;22.00;;;;;;;;5010131;28;8790;-70
2022/11/28 09:51:24;;;;;;;;;21.33;19.67;;;;;;;;5010218;28;8798;-70
2022/11/28 09:54:01;;;;;;;;;22.67;15.67;;;;;;;;5010183;28;8782;-70
2022/11/28 09:56:26;;;;;;;;;14.33;13.00;;;;;;;;5009914;28;8782;-70
2022/11/28 09:58:56;;;;;;;;;12.00;12.00;;;;;;;;5010195;28;8811;-69
2022/11/28 10:01:21;;;;;;;;;16.00;13.00;;;;;;;;5009735;28;8841;-72
2022/11/28 10:04:05;;;;;;;;;21.00;13.00;;;;;;;;5009337;28;11809;-71
2022/11/28 10:06:39;;;;;;;;;18.00;18.00;;;;;;;;5009724;28;8942;-70
2022/11/28 10:09:11;;;;;;;;;18.33;16.00;;;;;;;;5009953;28;11559;-71
2022/11/28 10:11:54;;;;;;;;;18.00;15.67;;;;;;;;5007990;28;11565;-70
2022/11/28 21:30:22;;;;;;;;;51.75;42.50;;;;;;;;4876309;27;13478;-71
2022/11/28 21:32:47;;;;;;;;;49.00;45.00;;;;;;;;4987772;28;10482;-73
2022/11/28 21:35:13;;;;;;;;;52.00;44.33;;;;;;;;5054683;28;9558;-73
2022/11/28 21:37:41;;;;;;;;;49.67;45.00;;;;;;;;5060606;28;8952;-73
2022/11/28 21:40:06;;;;;;;;;48.67;37.33;;;;;;;;5041420;28;8913;-73
2022/11/28 21:42:32;;;;;;;;;45.67;39.67;;;;;;;;5043343;28;9578;-72
2022/11/28 21:44:57;;;;;;;;;50.33;44.33;;;;;;;;5045070;28;9889;-73
2022/11/28 21:47:22;;;;;;;;;44.33;43.67;;;;;;;;5043723;28;8832;-72
2022/11/28 21:49:48;;;;;;;;;40.33;32.33;;;;;;;;5044858;28;8994;-74
2022/11/28 21:52:14;;;;;;;;;44.67;40.00;;;;;;;;5045090;28;8961;-72
2022/11/28 21:54:40;;;;;;;;;47.33;42.00;;;;;;;;5060472;28;8900;-74
2022/11/28 21:57:05;;;;;;;;;51.33;45.33;;;;;;;;5060728;28;8831;-73
2022/11/28 21:59:30;;;;;;;;;49.33;40.00;;;;;;;;5045040;28;8796;-72
2022/11/28 22:01:55;;;;;;;;;41.00;38.00;;;;;;;;5060254;28;8827;-72
2022/11/28 22:04:21;;;;;;;;;35.67;32.67;;;;;;;;5045129;28;8824;-74
2022/11/28 22:06:46;;;;;;;;;37.33;34.67;;;;;;;;5030075;28;10308;-72
2022/11/28 22:09:11;;;;;;;;;17.00;15.33;;;;;;;;5044653;28;9672;-72
2022/11/28 22:11:37;;;;;;;;;35.33;32.00;;;;;;;;5043859;28;8814;-72
2022/11/28 22:14:02;;;;;;;;;40.67;36.33;;;;;;;;5068324;28;9542;-75
2022/11/28 22:16:32;;;;;;;;;44.33;37.00;;;;;;;;5044909;28;8812;-74
2022/11/28 22:18:58;;;;;;;;;39.67;37.33;;;;;;;;5045946;28;8950;-73
2022/11/28 22:21:23;;;;;;;;;43.33;35.67;;;;;;;;5045672;28;8890;-73
2022/11/28 22:23:49;;;;;;;;;34.33;30.00;;;;;;;;5045589;28;8807;-72
2022/11/28 22:26:14;;;;;;;;;37.00;33.33;;;;;;;;5047263;28;8828;-74
2022/11/28 22:28:40;;;;;;;;;32.00;29.67;;;;;;;;5047995;28;8831;-72
2022/11/28 22:31:13;;;;;;;;;31.33;31.00;;;;;;;;5044111;28;8819;-73
2022/11/28 22:33:38;;;;;;;;;34.33;31.33;;;;;;;;5045497;28;8892;-72
2022/11/28 22:36:09;;;;;;;;;38.00;35.00;;;;;;;;5045527;28;8832;-74
2022/11/28 22:38:35;;;;;;;;;36.67;34.33;;;;;;;;5045664;28;8995;-74
2022/11/28 22:41:05;;;;;;;;;38.33;37.33;;;;;;;;5035062;28;8832;-74
2022/11/28 22:43:30;;;;;;;;;44.67;37.33;;;;;;;;5032358;28;8807;-73
2022/11/28 22:45:59;;;;;;;;;42.00;39.67;;;;;;;;5031979;28;9514;-73
2022/11/28 22:48:24;;;;;;;;;45.00;40.00;;;;;;;;5031816;28;8839;-73
2022/11/28 22:50:50;;;;;;;;;39.00;37.33;;;;;;;;5031855;28;8819;-74
2022/11/28 22:53:16;;;;;;;;;44.33;36.33;;;;;;;;5032028;28;8788;-73
2022/11/28 22:55:41;;;;;;;;;40.33;37.33;;;;;;;;5032319;28;8826;-73
2022/11/28 22:58:06;;;;;;;;;37.33;35.00;;;;;;;;5031889;28;8923;-73
2022/11/28 23:00:32;;;;;;;;;45.00;36.00;;;;;;;;5031585;28;8816;-74
2022/11/28 23:02:57;;;;;;;;;36.33;34.00;;;;;;;;5031742;28;8842;-73
2022/11/28 23:05:22;;;;;;;;;50.67;41.33;;;;;;;;5031577;28;8806;-73
2022/11/28 23:07:48;;;;;;;;;40.67;32.67;;;;;;;;5031564;28;8952;-72
2022/11/28 23:10:14;;;;;;;;;37.67;33.67;;;;;;;;5031783;28;8912;-74
2022/11/28 23:12:40;;;;;;;;;43.67;39.00;;;;;;;;5031451;28;11550;-72
2022/11/28 23:15:07;;;;;;;;;42.33;39.00;;;;;;;;5031517;28;8823;-72
2022/11/28 23:17:32;;;;;;;;;37.33;35.33;;;;;;;;5031233;28;8811;-73
2022/11/28 23:19:57;;;;;;;;;38.00;35.00;;;;;;;;5031104;28;8800;-73
2022/11/28 23:22:22;;;;;;;;;35.00;33.33;;;;;;;;5031262;28;8954;-73
2022/11/28 23:24:48;;;;;;;;;44.67;35.67;;;;;;;;5031294;28;8811;-73
2022/11/28 23:27:13;;;;;;;;;43.67;39.67;;;;;;;;5063184;28;8839;-73
2022/11/28 23:29:38;;;;;;;;;48.00;36.67;;;;;;;;5030885;28;8835;-72
2022/11/28 23:32:04;;;;;;;;;46.00;34.33;;;;;;;;5031036;28;8946;-74
2022/11/28 23:34:29;;;;;;;;;43.67;35.67;;;;;;;;5030872;28;8849;-72
2022/11/28 23:36:54;;;;;;;;;39.33;35.00;;;;;;;;5030872;28;9530;-73
2022/11/28 23:39:20;;;;;;;;;32.00;27.33;;;;;;;;5030737;28;9567;-73
2022/11/28 23:41:46;;;;;;;;;40.33;33.67;;;;;;;;5029543;28;8800;-73
2022/11/28 23:44:12;;;;;;;;;36.00;35.00;;;;;;;;5029448;28;8962;-72
2022/11/28 23:46:37;;;;;;;;;35.33;30.67;;;;;;;;5030687;28;8815;-72
2022/11/28 23:49:03;;;;;;;;;47.67;39.67;;;;;;;;5030489;28;8958;-72
2022/11/28 23:51:28;;;;;;;;;40.00;35.33;;;;;;;;5030194;28;8803;-73
2022/11/28 23:53:54;;;;;;;;;34.67;31.33;;;;;;;;5030366;28;8815;-73
2022/11/28 23:56:21;;;;;;;;;31.67;31.33;;;;;;;;5031266;28;9483;-73
2022/11/28 23:58:46;;;;;;;;;35.67;32.00;;;;;;;;5030810;28;9547;-73
